Daily Tabular Data
[Select Refresh to Update]


8/18/19
Time         Wind Dir   Wind Spd  Wind Gust     Hum In   Humidity    Temp In       Temp  Raw Barom   Tot Rain Wind Chill Heat Ix In Heat Index  Dew Point  DailyRain   HourRain   RainRate
                            mph        mph          %          %         F         F         in         in         F         F         F         F         in         in      in/hr
12:00am            85          1          5         55         85       75.8       65.3      29.04       0.07       65.3       77.1       70.2       60.7       0.00       0.00      0.000
12:30am            51          2          4         55         85       75.7       65.2      29.04       0.07       65.2       77.0       70.1       60.6       0.00       0.00      0.000
1:00am            114          2          5         55         85       75.4       64.8      29.04       0.07       64.8       76.7       69.7       60.2       0.00       0.00      0.000
1:30am            109          3          5         55         86       75.3       64.6      29.04       0.07       64.6       76.6       69.7       60.3       0.00       0.00      0.000
2:00am            192          0          4         55         87       75.1       64.5      29.04       0.07       64.5       76.4       69.7       60.6       0.00       0.00      0.000
2:30am             81          4          9         55         86       74.9       64.1      29.04       0.07       64.1       76.2       69.2       59.8       0.00       0.00      0.000
3:00am            169          0          6         55         87       74.7       63.8      29.04       0.07       63.8       76.0       69.0       59.9       0.00       0.00      0.000
3:30am            123          1          4         55         87       74.5       63.8      29.04       0.07       63.8       75.8       69.0       59.9       0.00       0.00      0.000
4:00am            191          0          1         56         86       74.4       63.9      29.03       0.07       63.9       75.8       69.0       59.6       0.00       0.00      0.000
4:30am            187          0          0         56         88       74.2       63.4      29.03       0.07       63.4       75.6       68.7       59.8       0.00       0.00      0.000
5:00am            173          1          2         56         86       74.1       63.3      29.03       0.07       63.3       75.5       68.4       59.0       0.00       0.00      0.000
5:30am            146          0          6         55         86       74.4       63.8      29.03       0.07       63.8       75.7       68.9       59.5       0.00       0.00      0.000
6:00am            186          0          4         55         87       74.7       63.1      29.04       0.07       63.1       76.0       68.3       59.2       0.00       0.00      0.000
6:30am            163          2          3         55         88       74.6       63.0      29.05       0.07       63.0       75.9       68.3       59.4       0.00       0.00      0.000
7:00am            199          0          4         54         86       74.7       63.4      29.06       0.07       63.4       75.9       68.5       59.1       0.00       0.00      0.000
7:30am            101          0          2         54         85       74.8       63.9      29.06       0.07       63.9       76.0       68.8       59.3       0.00       0.00      0.000
8:00am            111          2          6         54         82       74.7       64.1      29.07       0.07       64.1       75.9       68.6       58.5       0.00       0.00      0.000
8:30am            268          0          6         54         84       74.7       64.4      29.08       0.07       64.4       75.9       69.2       59.5       0.00       0.00      0.000
9:00am             63          4          6         54         84       74.6       64.8      29.09       0.07       64.8       75.8       69.6       59.9       0.00       0.00      0.000
9:30am            104          0          8         55         84       74.6       64.7      29.09       0.07       64.7       75.9       69.5       59.8       0.00       0.00      0.000
10:00am           215          1          5         55         78       74.7       67.5      29.09       0.07       67.5       76.0       71.5       60.4       0.00       0.00      0.000
10:30am            84          2          7         54         78       75.1       68.5      29.10       0.07       68.5       76.3       72.5       61.4       0.00       0.00      0.000
11:00am           209          1         10         54         70       75.6       72.3      29.10       0.07       72.3       76.8       75.3       62.0       0.00       0.00      0.000
11:30am           208          0          6         54         63       76.1       75.2      29.09       0.07       75.2       77.3       77.3       61.8       0.00       0.00      0.000
12:00pm           119          2          4         53         59       76.7       77.5      29.08       0.07       77.5       77.8       79.2       62.1       0.00       0.00      0.000
12:30pm           254          5          8         53         63       77.6       75.9      29.08       0.07       75.9       78.7       78.0       62.4       0.00       0.00      0.000
1:00pm            165          2          7         52         59       78.4       78.4      29.07       0.07       78.4       79.4       80.1       62.9       0.00       0.00      0.000
1:30pm            252          7          8         52         54       78.9       80.9      29.06       0.07       80.9       79.9       82.1       62.7       0.00       0.00      0.000
2:00pm            240          1         10         52         51       79.0       82.7      29.06       0.07       82.7       80.0       83.7       62.7       0.00       0.00      0.000
2:30pm            255         12         12         52         55       79.0       81.0      29.05       0.07       81.0       80.0       82.4       63.3       0.00       0.00      0.000
3:00pm            215          2         12         52         55       79.2       81.9      29.04       0.07       81.9       80.2       83.4       64.2       0.00       0.00      0.000
3:30pm            221          3         12         53         57       79.4       80.3      29.03       0.07       80.3       80.5       81.8       63.7       0.00       0.00      0.000
4:00pm            246          3         12         53         56       79.7       80.7      29.02       0.07       80.7       80.8       82.2       63.6       0.00       0.00      0.000
4:30pm            263          6          9         53         56       80.2       80.5      29.02       0.07       80.5       81.3       81.9       63.4       0.00       0.00      0.000
5:00pm            242          2         10         51         58       79.6       79.7      29.02       0.07       79.7       80.5       81.3       63.6       0.00       0.00      0.000
5:30pm            243          6         10         51         60       76.9       77.7      29.02       0.07       77.7       77.8       79.5       62.7       0.00       0.00      0.000
6:00pm            246          2         10         50         61       77.3       77.7      29.01       0.07       77.7       78.1       79.6       63.2       0.00       0.00      0.000
6:30pm            244          1          7         48         65       75.6       75.0      29.01       0.07       75.0       76.2       77.4       62.4       0.00       0.00      0.000
7:00pm            251          4          9         53         71       76.7       72.5      29.02       0.07       72.5       77.8       75.6       62.6       0.00       0.00      0.000
7:30pm            243          2          9         53         76       77.7       69.7      29.02       0.07       69.7       78.8       73.4       61.8       0.00       0.00      0.000
8:00pm            238          1          7         54         81       77.7       67.6      29.03       0.07       67.6       78.9       72.0       61.6       0.00       0.00      0.000
8:30pm            254          2          7         54         84       77.0       66.3      29.03       0.07       66.3       78.2       71.1       61.3       0.00       0.00      0.000
9:00pm            242          0          4         55         86       76.4       65.3      29.04       0.07       65.3       77.7       70.4       61.0       0.00       0.00      0.000
9:30pm            246          0          3         56         87       76.0       64.9      29.05       0.07       64.9       77.4       70.1       60.9       0.00       0.00      0.000
10:00pm           213          0          3         56         91       76.2       66.2      29.06       0.07       66.2       77.6       72.0       63.5       0.00       0.00      0.000
10:30pm           229          0          1         55         91       76.7       65.4      29.07       0.07       65.4       78.0       71.2       62.7       0.00       0.00      0.000
11:00pm           229          0          0         55         92       76.6       63.4      29.06       0.07       63.4       77.9       69.3       61.0       0.00       0.00      0.000
11:30pm           229          0          0         55         92       76.2       63.1      29.07       0.07       63.1       77.5       69.0       60.7       0.00       0.00      0.000